CheckWX is a tool to help pilots better visualize weather data.  It is not intended as a substitute for an official pre-flight weather briefing.

19:24:15 UTC

KDMO METAR
Sedalia Regional Airport
Sedalia, Missouri, USA
Current

31 mins ago

KDMO 231853Z AUTO 18005KT 10SM OVC005 03/02 A2989 RMK AO2 SLP130 T00280022
Observed
Jan-23 @ 18:53 UTC
Wind
  • 180° at 5 KTS
Visibility
10 SM
Flight Rules
IFR
Cloud Levels
  • Overcast at 500' AGL
Temperature
C / 37°F
Dewpoint
C / 36°F
Humidity
93%
Altimeter
29.89" Hg
Pressure
1012.22 hPa
Previous

2 hours ago

KDMO 231753Z AUTO 17008KT 8SM OVC005 03/02 A2992 RMK AO2 SLP138 60000 T00280022 10028 20006 58009
Observed
Jan-23 @ 17:53 UTC
Wind
  • 170° at 8 KTS
Visibility
8 SM
Flight Rules
IFR
Cloud Levels
  • Overcast at 500' AGL
Temperature
C / 37°F
Dewpoint
C / 36°F
Humidity
93%
Altimeter
29.92" Hg
Pressure
1013.22 hPa
Previous

3 hours ago

KDMO 231653Z AUTO 18007KT 6SM BR OVC005 02/02 A2994 RMK AO2 SLP147 T00220017
Observed
Jan-23 @ 16:53 UTC
Wind
  • 180° at 7 KTS
Visibility
6 SM
Flight Rules
IFR
Conditions
Mist
Cloud Levels
  • Overcast at 500' AGL
Temperature
C / 36°F
Dewpoint
C / 36°F
Humidity
100%
Altimeter
29.94" Hg
Pressure
1013.92 hPa